Terminal Aerodrome Forecast
Issued by NWS

Current Version | Previous Version | Text Only | Print | Product List | Glossary On
Versions: 1 2 3 4 5 6 7 8 9 10 11 12 13 14 15 16 17 18 19 20 21 22 23 24 25 26 27 28 29 30 31 32 33 34 35 36 37 38 39
000
FTUS46 KPQR 281126
TAFONP
TAF
KONP 281126Z 2812/2912 17004KT 3SM -RADZ BR BKN012 OVC030
     FM281700 15005KT P6SM -RA SCT010 BKN035 OVC060
     FM282200 19007KT P6SM SCT015 BKN035 OVC060
      TEMPO 2822/2902 -RA
     FM290200 15006KT P6SM SCT040 OVC060
     FM290800 19010KT 5SM -RA BKN020 OVC040=

USA.gov is the U.S. government's official web portal to all federal, state and local government web resources and services.